Portada
METAR-TAF:

METAR-TAF

Aeropuertos :

Aeropuerto Civil de Amán

Amán, Jordania

latitud: 31-59N, longitud: 035-59E, altitud: 767 m

Observación

El informe se hizo hace 1 hora y 20 minutos, a las 00:00 UTC
Viento calma
Temperatura 22°C
Humedad 65%
Presión 1015 hPa
Visibilidad: 6000 m

METAR: OJAM 250000Z 00000KT 6000 NSC 22/15 Q1015 NOSIG

Hora: 04:20 (01:20 UTC)

Pronóstico

El informe se hizo hace 3 horas y 10 minutos, a las 22:10 UTC
Pronóstico válido del 25 a las 00 UTC al 26 a las 06 UTC
Viento 2 kt con dirección variable
Visibilidad: 7000 m
Probabilidad 30%
del 25 a las 02 UTC al 25 a las 07 UTC
Visibilidad: 3000 m
calima
Evolucionando progresivamente
del 25 a las 07 UTC al 25 a las 09 UTC
Viento 12 kt del noroeste
Visibilidad: 5000 m
Escasas nubes a una altura de 3000 ft
calima

TAF: OJAM 242210Z 2500/2606 VRB02KT 7000 NSC PROB30 2502/2507 3000 HZ BECMG 2507/2509 32012KT 5000 HZ FEW030

Observaciones y pronósticos meteorológicos de más de 4000 aeropuertos (mensajes METAR y TAF).

Los puntos amarillos y rojos representan las estaciones disponibles.

Ponga el ratón en el punto deseado para ver el nombre de la estación.

Haga clic para ver las observaciones y los pronósticos meteorológicos.

Para cambiar el mapa : haga clic en los botones verdes con una cruz de color negro para hacer un zoom, en el botón verde con un guión para alejar o en las flechas verdes para mapas adyacentes.


METAR-TAF: